Nova Zeelandia — PJHA — position and weather

sailwx.info

Track history (hours):
 
Tides and Currents Weather Stations Pressure Air Temp Water Temp Dewpoint Dewpoint Depression Visibility Wind Speed Wind Dir Waves Ship Positions

Nova Zeelandia

Last reported at 2018-Jul-11 01:39 UTC. Time now 2018-Jul-20 14:03 UTC.
Position N 04°41' W 000°11'.
Warning: this ship's position is 9 days out of date.

Length 106 m; beam 17 m.

Type: Cargo ship. MMSI: 306497000.

Date/timePositionNaut miles runAvg speedWind from/ knotsBaromVisibWave heightAir tempDewpointWater temp
2018-Jul-11 01:39N 04°41' W 000°11'411.0
2018-Jul-11 01:15N 04°42' W 000°07'411.1
2018-Jul-11 00:56N 04°43' W 000°04'511.2
2018-Jul-11 00:28N 04°45' E 000°01'511.0
2018-Jul-11 00:00N 04°46' E 000°06'510.9
2018-Jul-10 23:30N 04°48' E 000°11'611.1
2018-Jul-10 23:00N 04°49' E 000°17'611.3
2018-Jul-10 22:29N 04°52' E 000°22'611.1
2018-Jul-10 21:59N 04°54' E 000°27'511.2
2018-Jul-10 21:30N 04°55' E 000°32'611.2
2018-Jul-10 21:00N 04°57' E 000°38'611.5
2018-Jul-10 20:30N 04°58' E 000°43'711.6
2018-Jul-10 19:55N 05°00' E 000°50'511.5
2018-Jul-10 19:29N 05°02' E 000°55'3011.6
2018-Jul-10 16:55N 05°19' E 001°19'611.7
2018-Jul-10 16:23N 05°23' E 001°24'  
Track history (hours):
 
Tides and Currents Weather Stations Pressure Air Temp Water Temp Dewpoint Dewpoint Depression Visibility Wind Speed Wind Dir Waves Ship Positions

Nova Zeelandia

Last reported at 2018-Jul-11 01:39 UTC. Time now 2018-Jul-20 14:03 UTC.
Position N 04°41' W 000°11'.
Warning: this ship's position is 9 days out of date.

Length 106 m; beam 17 m.

Type: Cargo ship. MMSI: 306497000.

Date/timePositionNaut miles runAvg speedWind from/ knotsBaromVisibWave heightAir tempDewpointWater temp
2018-Jul-11 01:39N 04°41' W 000°11'411.0
2018-Jul-11 01:15N 04°42' W 000°07'411.1
2018-Jul-11 00:56N 04°43' W 000°04'511.2
2018-Jul-11 00:28N 04°45' E 000°01'511.0
2018-Jul-11 00:00N 04°46' E 000°06'510.9
2018-Jul-10 23:30N 04°48' E 000°11'611.1
2018-Jul-10 23:00N 04°49' E 000°17'611.3
2018-Jul-10 22:29N 04°52' E 000°22'611.1
2018-Jul-10 21:59N 04°54' E 000°27'511.2
2018-Jul-10 21:30N 04°55' E 000°32'611.2
2018-Jul-10 21:00N 04°57' E 000°38'611.5
2018-Jul-10 20:30N 04°58' E 000°43'711.6
2018-Jul-10 19:55N 05°00' E 000°50'511.5
2018-Jul-10 19:29N 05°02' E 000°55'3011.6
2018-Jul-10 16:55N 05°19' E 001°19'611.7
2018-Jul-10 16:23N 05°23' E 001°24'  

Dump ship's entire track history